sensor_id;sensor_type;location;lat;lon;timestamp;temperature;humidity
22948;DHT22;11640;52.520;13.456;2022-09-21T00:04:50;9.10;99.90
22948;DHT22;11640;52.520;13.456;2022-09-21T00:09:52;9.20;99.90
22948;DHT22;11640;52.520;13.456;2022-09-21T00:14:53;9.10;99.90
22948;DHT22;11640;52.520;13.456;2022-09-21T00:19:57;9.10;99.90
22948;DHT22;11640;52.520;13.456;2022-09-21T00:24:58;9.20;99.90
22948;DHT22;11640;52.520;13.456;2022-09-21T00:30:06;9.20;99.90
22948;DHT22;11640;52.520;13.456;2022-09-21T00:35:08;9.10;99.90
22948;DHT22;11640;52.520;13.456;2022-09-21T00:40:10;9.10;99.90
22948;DHT22;11640;52.520;13.456;2022-09-21T00:45:13;9.10;99.90
22948;DHT22;11640;52.520;13.456;2022-09-21T00:50:22;9.10;99.90
22948;DHT22;11640;52.520;13.456;2022-09-21T00:55:28;9.10;99.90
22948;DHT22;11640;52.520;13.456;2022-09-21T01:00:31;9.10;99.90
22948;DHT22;11640;52.520;13.456;2022-09-21T01:05:33;9.00;99.90
22948;DHT22;11640;52.520;13.456;2022-09-21T01:10:49;9.10;99.90
22948;DHT22;11640;52.520;13.456;2022-09-21T01:16:13;9.00;99.90
22948;DHT22;11640;52.520;13.456;2022-09-21T01:21:21;9.00;99.90
22948;DHT22;11640;52.520;13.456;2022-09-21T01:37:07;9.00;99.90
22948;DHT22;11640;52.520;13.456;2022-09-21T01:42:11;8.90;99.90
22948;DHT22;11640;52.520;13.456;2022-09-21T01:47:15;8.90;99.90
22948;DHT22;11640;52.520;13.456;2022-09-21T01:57:31;8.80;99.90
22948;DHT22;11640;52.520;13.456;2022-09-21T02:07:40;8.80;99.90
22948;DHT22;11640;52.520;13.456;2022-09-21T02:12:42;8.80;99.90
22948;DHT22;11640;52.520;13.456;2022-09-21T02:18:03;8.80;99.90
22948;DHT22;11640;52.520;13.456;2022-09-21T02:28:28;8.70;99.90
22948;DHT22;11640;52.520;13.456;2022-09-21T02:34:02;8.60;99.90
22948;DHT22;11640;52.520;13.456;2022-09-21T02:39:05;8.60;99.90
22948;DHT22;11640;52.520;13.456;2022-09-21T02:44:16;8.60;99.90
22948;DHT22;11640;52.520;13.456;2022-09-21T02:49:52;8.60;99.90
22948;DHT22;11640;52.520;13.456;2022-09-21T02:54:56;8.60;99.90
22948;DHT22;11640;52.520;13.456;2022-09-21T02:59:59;8.60;99.90
22948;DHT22;11640;52.520;13.456;2022-09-21T03:05:00;8.60;99.90
22948;DHT22;11640;52.520;13.456;2022-09-21T03:10:03;8.60;99.90
22948;DHT22;11640;52.520;13.456;2022-09-21T03:15:05;8.50;99.90
22948;DHT22;11640;52.520;13.456;2022-09-21T03:20:07;8.60;99.90
22948;DHT22;11640;52.520;13.456;2022-09-21T03:25:09;8.60;99.90
22948;DHT22;11640;52.520;13.456;2022-09-21T03:30:13;8.60;99.90
22948;DHT22;11640;52.520;13.456;2022-09-21T03:35:15;8.70;99.90
22948;DHT22;11640;52.520;13.456;2022-09-21T03:40:17;8.70;99.90
22948;DHT22;11640;52.520;13.456;2022-09-21T03:45:20;8.70;99.90
22948;DHT22;11640;52.520;13.456;2022-09-21T03:50:28;8.70;99.90
22948;DHT22;11640;52.520;13.456;2022-09-21T03:55:30;8.70;99.90
22948;DHT22;11640;52.520;13.456;2022-09-21T04:00:32;8.70;99.90
22948;DHT22;11640;52.520;13.456;2022-09-21T04:05:34;8.60;99.90
22948;DHT22;11640;52.520;13.456;2022-09-21T04:10:35;8.60;99.90
22948;DHT22;11640;52.520;13.456;2022-09-21T04:15:41;8.60;99.90
22948;DHT22;11640;52.520;13.456;2022-09-21T04:20:43;8.60;99.90
22948;DHT22;11640;52.520;13.456;2022-09-21T04:25:47;8.60;99.90
22948;DHT22;11640;52.520;13.456;2022-09-21T04:30:53;8.50;99.90
22948;DHT22;11640;52.520;13.456;2022-09-21T04:35:56;8.50;99.90
22948;DHT22;11640;52.520;13.456;2022-09-21T04:40:58;8.50;99.90
22948;DHT22;11640;52.520;13.456;2022-09-21T04:46:05;8.50;99.90
22948;DHT22;11640;52.520;13.456;2022-09-21T04:51:08;8.40;99.90
22948;DHT22;11640;52.520;13.456;2022-09-21T04:56:13;8.40;99.90
22948;DHT22;11640;52.520;13.456;2022-09-21T05:01:16;8.40;99.90
22948;DHT22;11640;52.520;13.456;2022-09-21T05:06:18;8.40;99.90
22948;DHT22;11640;52.520;13.456;2022-09-21T05:11:20;8.40;99.90
22948;DHT22;11640;52.520;13.456;2022-09-21T05:16:21;8.40;99.90
22948;DHT22;11640;52.520;13.456;2022-09-21T05:21:23;8.30;99.90
22948;DHT22;11640;52.520;13.456;2022-09-21T05:26:25;8.40;99.90
22948;DHT22;11640;52.520;13.456;2022-09-21T05:31:40;8.40;99.90
22948;DHT22;11640;52.520;13.456;2022-09-21T05:41:50;8.40;99.90
22948;DHT22;11640;52.520;13.456;2022-09-21T05:47:00;8.50;99.90
22948;DHT22;11640;52.520;13.456;2022-09-21T05:57:45;8.70;99.90
22948;DHT22;11640;52.520;13.456;2022-09-21T06:08:00;8.90;99.90
22948;DHT22;11640;52.520;13.456;2022-09-21T06:13:01;9.10;99.90
22948;DHT22;11640;52.520;13.456;2022-09-21T06:18:04;9.20;99.90
22948;DHT22;11640;52.520;13.456;2022-09-21T06:23:08;9.40;99.90
22948;DHT22;11640;52.520;13.456;2022-09-21T06:28:11;9.50;99.90
22948;DHT22;11640;52.520;13.456;2022-09-21T06:33:13;9.60;99.90
22948;DHT22;11640;52.520;13.456;2022-09-21T06:38:21;9.70;99.90
22948;DHT22;11640;52.520;13.456;2022-09-21T06:43:23;9.90;99.90
22948;DHT22;11640;52.520;13.456;2022-09-21T06:48:26;10.00;99.90
22948;DHT22;11640;52.520;13.456;2022-09-21T06:53:31;10.10;99.90
22948;DHT22;11640;52.520;13.456;2022-09-21T06:58:33;10.10;99.90
22948;DHT22;11640;52.520;13.456;2022-09-21T07:03:36;10.20;99.90
22948;DHT22;11640;52.520;13.456;2022-09-21T07:08:39;10.30;99.90
22948;DHT22;11640;52.520;13.456;2022-09-21T07:14:00;10.60;99.90
22948;DHT22;11640;52.520;13.456;2022-09-21T07:19:02;10.60;99.90
22948;DHT22;11640;52.520;13.456;2022-09-21T07:24:12;10.70;99.90
22948;DHT22;11640;52.520;13.456;2022-09-21T07:29:15;10.70;99.90
22948;DHT22;11640;52.520;13.456;2022-09-21T07:34:17;10.70;99.90
22948;DHT22;11640;52.520;13.456;2022-09-21T07:39:19;10.90;99.90
22948;DHT22;11640;52.520;13.456;2022-09-21T07:44:20;10.90;99.90
22948;DHT22;11640;52.520;13.456;2022-09-21T07:49:23;11.10;99.90
22948;DHT22;11640;52.520;13.456;2022-09-21T07:54:24;11.40;99.90
22948;DHT22;11640;52.520;13.456;2022-09-21T07:59:26;11.40;99.90
22948;DHT22;11640;52.520;13.456;2022-09-21T08:04:28;11.60;99.90
22948;DHT22;11640;52.520;13.456;2022-09-21T08:09:30;11.80;99.90
22948;DHT22;11640;52.520;13.456;2022-09-21T08:14:32;12.00;99.90
22948;DHT22;11640;52.520;13.456;2022-09-21T08:19:35;12.30;99.90
22948;DHT22;11640;52.520;13.456;2022-09-21T08:24:36;12.50;99.90
22948;DHT22;11640;52.520;13.456;2022-09-21T08:29:39;12.70;99.90
22948;DHT22;11640;52.520;13.456;2022-09-21T08:34:41;12.70;99.90
22948;DHT22;11640;52.520;13.456;2022-09-21T08:39:42;12.80;99.90
22948;DHT22;11640;52.520;13.456;2022-09-21T08:44:51;13.00;99.90
22948;DHT22;11640;52.520;13.456;2022-09-21T08:49:58;13.20;99.90
22948;DHT22;11640;52.520;13.456;2022-09-21T08:55:15;13.50;99.90
22948;DHT22;11640;52.520;13.456;2022-09-21T09:00:19;13.40;99.90
22948;DHT22;11640;52.520;13.456;2022-09-21T09:10:42;13.50;99.90
22948;DHT22;11640;52.520;13.456;2022-09-21T09:21:19;13.80;99.90
22948;DHT22;11640;52.520;13.456;2022-09-21T09:26:43;13.90;99.90
22948;DHT22;11640;52.520;13.456;2022-09-21T09:31:47;13.90;99.90
22948;DHT22;11640;52.520;13.456;2022-09-21T09:36:56;14.10;99.90
22948;DHT22;11640;52.520;13.456;2022-09-21T09:42:23;14.30;99.90
22948;DHT22;11640;52.520;13.456;2022-09-21T09:47:55;14.20;99.90
22948;DHT22;11640;52.520;13.456;2022-09-21T09:53:19;14.30;99.90
22948;DHT22;11640;52.520;13.456;2022-09-21T10:03:27;14.50;99.90
22948;DHT22;11640;52.520;13.456;2022-09-21T10:08:44;14.50;99.90
22948;DHT22;11640;52.520;13.456;2022-09-21T10:13:48;14.40;99.90
22948;DHT22;11640;52.520;13.456;2022-09-21T10:18:55;14.50;99.90
22948;DHT22;11640;52.520;13.456;2022-09-21T10:24:06;14.80;99.90
22948;DHT22;11640;52.520;13.456;2022-09-21T10:34:19;14.80;99.90
22948;DHT22;11640;52.520;13.456;2022-09-21T10:44:37;15.20;99.90
22948;DHT22;11640;52.520;13.456;2022-09-21T10:49:44;15.70;99.90
22948;DHT22;11640;52.520;13.456;2022-09-21T10:54:49;16.20;99.90
22948;DHT22;11640;52.520;13.456;2022-09-21T10:59:52;16.30;99.90
22948;DHT22;11640;52.520;13.456;2022-09-21T11:05:21;16.10;99.90
22948;DHT22;11640;52.520;13.456;2022-09-21T11:15:48;15.50;99.90
22948;DHT22;11640;52.520;13.456;2022-09-21T11:20:57;15.70;99.90
22948;DHT22;11640;52.520;13.456;2022-09-21T11:31:57;16.30;99.90
22948;DHT22;11640;52.520;13.456;2022-09-21T11:37:23;16.80;99.90
22948;DHT22;11640;52.520;13.456;2022-09-21T11:53:24;16.30;99.90
22948;DHT22;11640;52.520;13.456;2022-09-21T12:26:07;16.70;99.90
22948;DHT22;11640;52.520;13.456;2022-09-21T12:31:23;16.40;99.90
22948;DHT22;11640;52.520;13.456;2022-09-21T12:52:35;17.50;99.90
22948;DHT22;11640;52.520;13.456;2022-09-21T12:58:12;17.50;99.90
22948;DHT22;11640;52.520;13.456;2022-09-21T13:03:42;17.20;99.90
22948;DHT22;11640;52.520;13.456;2022-09-21T13:08:46;16.90;99.90
22948;DHT22;11640;52.520;13.456;2022-09-21T13:14:00;16.70;99.90
22948;DHT22;11640;52.520;13.456;2022-09-21T13:24:29;17.00;99.90
22948;DHT22;11640;52.520;13.456;2022-09-21T13:29:33;18.00;99.90
22948;DHT22;11640;52.520;13.456;2022-09-21T13:34:36;18.50;99.90
22948;DHT22;11640;52.520;13.456;2022-09-21T13:39:50;18.20;99.90
22948;DHT22;11640;52.520;13.456;2022-09-21T13:50:28;18.40;99.90
22948;DHT22;11640;52.520;13.456;2022-09-21T13:55:38;18.20;99.90
22948;DHT22;11640;52.520;13.456;2022-09-21T14:00:49;18.30;99.90
22948;DHT22;11640;52.520;13.456;2022-09-21T14:05:59;18.40;99.90
22948;DHT22;11640;52.520;13.456;2022-09-21T14:11:07;18.80;99.90
22948;DHT22;11640;52.520;13.456;2022-09-21T14:32:33;19.50;99.90
22948;DHT22;11640;52.520;13.456;2022-09-21T14:37:48;19.50;99.90
22948;DHT22;11640;52.520;13.456;2022-09-21T14:42:53;20.10;99.90
22948;DHT22;11640;52.520;13.456;2022-09-21T14:48:26;19.10;99.90
22948;DHT22;11640;52.520;13.456;2022-09-21T15:10:17;17.20;99.90
22948;DHT22;11640;52.520;13.456;2022-09-21T15:21:26;17.00;99.90
22948;DHT22;11640;52.520;13.456;2022-09-21T15:26:32;16.90;99.90
22948;DHT22;11640;52.520;13.456;2022-09-21T15:31:37;16.80;99.90
22948;DHT22;11640;52.520;13.456;2022-09-21T15:36:41;16.70;99.90
22948;DHT22;11640;52.520;13.456;2022-09-21T15:41:44;16.70;99.90
22948;DHT22;11640;52.520;13.456;2022-09-21T15:46:51;16.60;99.90
22948;DHT22;11640;52.520;13.456;2022-09-21T15:52:00;16.50;99.90
22948;DHT22;11640;52.520;13.456;2022-09-21T15:57:23;16.30;99.90
22948;DHT22;11640;52.520;13.456;2022-09-21T16:02:30;16.10;99.90
22948;DHT22;11640;52.520;13.456;2022-09-21T16:07:36;16.10;99.90
22948;DHT22;11640;52.520;13.456;2022-09-21T16:12:42;16.20;99.90
22948;DHT22;11640;52.520;13.456;2022-09-21T16:18:01;16.10;99.90
22948;DHT22;11640;52.520;13.456;2022-09-21T16:23:10;16.00;99.90
22948;DHT22;11640;52.520;13.456;2022-09-21T16:33:42;15.90;99.90
22948;DHT22;11640;52.520;13.456;2022-09-21T16:38:45;15.90;99.90
22948;DHT22;11640;52.520;13.456;2022-09-21T16:43:48;15.80;99.90
22948;DHT22;11640;52.520;13.456;2022-09-21T16:48:51;15.70;99.90
22948;DHT22;11640;52.520;13.456;2022-09-21T16:53:55;15.50;99.90
22948;DHT22;11640;52.520;13.456;2022-09-21T16:58:57;15.50;99.90
22948;DHT22;11640;52.520;13.456;2022-09-21T17:04:04;15.30;99.90
22948;DHT22;11640;52.520;13.456;2022-09-21T17:14:31;15.10;99.90
22948;DHT22;11640;52.520;13.456;2022-09-21T17:19:36;15.00;99.90
22948;DHT22;11640;52.520;13.456;2022-09-21T17:24:38;14.90;99.90
22948;DHT22;11640;52.520;13.456;2022-09-21T17:29:51;14.80;99.90
22948;DHT22;11640;52.520;13.456;2022-09-21T17:35:28;14.70;99.90
22948;DHT22;11640;52.520;13.456;2022-09-21T17:40:31;14.50;99.90
22948;DHT22;11640;52.520;13.456;2022-09-21T17:46:06;14.30;99.90
22948;DHT22;11640;52.520;13.456;2022-09-21T17:51:11;14.10;99.90
22948;DHT22;11640;52.520;13.456;2022-09-21T17:56:35;13.90;99.90
22948;DHT22;11640;52.520;13.456;2022-09-21T18:01:40;13.80;99.90
22948;DHT22;11640;52.520;13.456;2022-09-21T18:06:42;13.60;99.90
22948;DHT22;11640;52.520;13.456;2022-09-21T18:12:13;13.50;99.90
22948;DHT22;11640;52.520;13.456;2022-09-21T18:28:40;13.20;99.90
22948;DHT22;11640;52.520;13.456;2022-09-21T18:34:06;13.00;99.90
22948;DHT22;11640;52.520;13.456;2022-09-21T18:45:12;12.80;99.90
22948;DHT22;11640;52.520;13.456;2022-09-21T18:50:06;12.80;99.90
22948;DHT22;11640;52.520;13.456;2022-09-21T18:55:24;12.90;99.90
22948;DHT22;11640;52.520;13.456;2022-09-21T19:00:30;12.70;99.90
22948;DHT22;11640;52.520;13.456;2022-09-21T19:05:32;12.50;99.90
22948;DHT22;11640;52.520;13.456;2022-09-21T19:10:37;12.30;99.90
22948;DHT22;11640;52.520;13.456;2022-09-21T19:16:01;12.40;99.90
22948;DHT22;11640;52.520;13.456;2022-09-21T19:37:31;12.30;99.90
22948;DHT22;11640;52.520;13.456;2022-09-21T19:42:51;12.20;99.90
22948;DHT22;11640;52.520;13.456;2022-09-21T19:48:03;12.10;99.90
22948;DHT22;11640;52.520;13.456;2022-09-21T19:53:05;12.10;99.90
22948;DHT22;11640;52.520;13.456;2022-09-21T19:58:25;12.00;99.90
22948;DHT22;11640;52.520;13.456;2022-09-21T20:03:46;11.90;99.90
22948;DHT22;11640;52.520;13.456;2022-09-21T20:09:09;11.80;99.90
22948;DHT22;11640;52.520;13.456;2022-09-21T20:14:49;11.70;99.90
22948;DHT22;11640;52.520;13.456;2022-09-21T20:25:14;11.40;99.90
22948;DHT22;11640;52.520;13.456;2022-09-21T20:30:20;11.30;99.90
22948;DHT22;11640;52.520;13.456;2022-09-21T20:35:25;11.20;99.90
22948;DHT22;11640;52.520;13.456;2022-09-21T20:40:27;11.20;99.90
22948;DHT22;11640;52.520;13.456;2022-09-21T20:45:30;11.20;99.90
22948;DHT22;11640;52.520;13.456;2022-09-21T20:50:33;11.20;99.90
22948;DHT22;11640;52.520;13.456;2022-09-21T20:55:35;11.20;99.90
22948;DHT22;11640;52.520;13.456;2022-09-21T21:00:37;11.30;99.90
22948;DHT22;11640;52.520;13.456;2022-09-21T21:05:39;11.40;99.90
22948;DHT22;11640;52.520;13.456;2022-09-21T21:10:45;11.40;99.90
22948;DHT22;11640;52.520;13.456;2022-09-21T21:15:51;11.40;99.90
22948;DHT22;11640;52.520;13.456;2022-09-21T21:20:53;11.30;99.90
22948;DHT22;11640;52.520;13.456;2022-09-21T21:25:55;11.30;99.90
22948;DHT22;11640;52.520;13.456;2022-09-21T21:30:59;11.30;99.90
22948;DHT22;11640;52.520;13.456;2022-09-21T21:36:05;11.20;99.90
22948;DHT22;11640;52.520;13.456;2022-09-21T21:41:08;11.30;99.90
22948;DHT22;11640;52.520;13.456;2022-09-21T21:46:13;11.20;99.90
22948;DHT22;11640;52.520;13.456;2022-09-21T21:51:14;11.30;99.90
22948;DHT22;11640;52.520;13.456;2022-09-21T21:56:16;11.30;99.90
22948;DHT22;11640;52.520;13.456;2022-09-21T22:01:22;11.30;99.90
22948;DHT22;11640;52.520;13.456;2022-09-21T22:06:26;11.30;99.90
22948;DHT22;11640;52.520;13.456;2022-09-21T22:11:28;11.30;99.90
22948;DHT22;11640;52.520;13.456;2022-09-21T22:16:32;11.40;99.90
22948;DHT22;11640;52.520;13.456;2022-09-21T22:21:44;11.40;99.90
22948;DHT22;11640;52.520;13.456;2022-09-21T22:26:54;11.40;99.90
22948;DHT22;11640;52.520;13.456;2022-09-21T22:31:56;11.40;99.90
22948;DHT22;11640;52.520;13.456;2022-09-21T22:36:58;11.30;99.90
22948;DHT22;11640;52.520;13.456;2022-09-21T22:42:01;11.40;99.90
22948;DHT22;11640;52.520;13.456;2022-09-21T22:47:04;11.40;99.90
22948;DHT22;11640;52.520;13.456;2022-09-21T22:52:05;11.30;99.90
22948;DHT22;11640;52.520;13.456;2022-09-21T22:57:08;11.20;99.90
22948;DHT22;11640;52.520;13.456;2022-09-21T23:02:09;11.10;99.90
22948;DHT22;11640;52.520;13.456;2022-09-21T23:07:12;11.00;99.90
22948;DHT22;11640;52.520;13.456;2022-09-21T23:12:16;10.90;99.90
22948;DHT22;11640;52.520;13.456;2022-09-21T23:17:18;10.80;99.90
22948;DHT22;11640;52.520;13.456;2022-09-21T23:22:20;10.80;99.90
22948;DHT22;11640;52.520;13.456;2022-09-21T23:27:22;10.80;99.90
22948;DHT22;11640;52.520;13.456;2022-09-21T23:32:24;10.80;99.90
22948;DHT22;11640;52.520;13.456;2022-09-21T23:37:27;10.80;99.90
22948;DHT22;11640;52.520;13.456;2022-09-21T23:42:29;10.80;99.90
22948;DHT22;11640;52.520;13.456;2022-09-21T23:47:30;10.80;99.90
22948;DHT22;11640;52.520;13.456;2022-09-21T23:52:32;10.80;99.90
22948;DHT22;11640;52.520;13.456;2022-09-21T23:57:34;10.90;99.90
